Metar Report
Metar
METAR KPHG 230256Z AUTO 00000KT 10SM CLR 11/03 A3017 A02 440
METAR KPHG 230156Z AUTO 08003KT 10SM SCT060 12/04 A3015 A02 439
METAR KPHG 230056Z AUTO 09009KT 10SM OVC060 17/04 A3014 A02 438
METAR KPHG 222356Z AUTO 02003KT 10SM SCT060 18/02 A3014 A02 437
METAR KPHG 222256Z AUTO 09005KT 10SM CLR 19/01 A3014 A02 436
METAR KPHG 222156Z AUTO 07005KT 10SM CLR 18/01 A3014 A02 435
METAR KPHG 222056Z AUTO 03006KT 10SM CLR 18/02 A3016 A02 434
METAR KPHG 221956Z AUTO 35006KT 10SM CLR 17/02 A3018 A02 433
METAR KPHG 221856Z AUTO 30004KT 10SM CLR 16/02 A3020 A02 432
METAR KPHG 221756Z AUTO 35008KT 10SM CLR 14/03 A3023 A02 431
METAR KPHG 221656Z AUTO 05008G14KT 10SM CLR 13/03 A3025 A02 430
METAR KPHG 221556Z AUTO 02008KT 10SM SCT025 12/05 A3025 A02 429
METAR KPHG 221456Z AUTO 36008KT 10SM BKN070 08/05 A3024 A02 428
METAR KPHG 221356Z AUTO 34008KT 7SM SCT007 OVC055 06/06 A3025 A02 427
METAR KPHG 221256Z AUTO 32007KT 5SM BR OVC055 05/05 A3024 A02 426
METAR KPHG 221156Z AUTO 33005KT 7SM SCT055 05/05 A3021 A02 425
METAR KPHG 221056Z AUTO 30006KT 7SM OVC049 06/06 A3020 A02 424
METAR KPHG 220956Z AUTO 31006KT 7SM SCT035 BKN043 OVC065 06/06 A3021 A02 423
METAR KPHG 220856Z AUTO 32003KT 10SM SCT030 OVC041 06/06 A3022 A02 422
METAR KPHG 220756Z AUTO 36005KT 10SM BKN014 OVC028 06/06 A3022 A02 421
METAR KPHG 220656Z AUTO 35005KT 10SM OVC018 06/06 A3023 A02 420
METAR KPHG 220556Z AUTO 35005KT 10SM BKN012 OVC017 06/06 A3025 A02 419
METAR KPHG 220456Z AUTO 34005KT 10SM BKN020 OVC028 06/06 A3026 A02 418
METAR KPHG 220356Z AUTO 35003KT 10SM SCT018 OVC031 06/06 A3026 A02 417
METAR KPHG 220256Z AUTO 01003KT 10SM OVC025 07/07 A3025 A02 416
METAR KPHG 220156Z AUTO 00000KT 10SM BKN009 BKN014 OVC021 07/07 A3024 A02 415
METAR KPHG 220056Z AUTO 35004KT 10SM OVC022 07/07 A3023 A02 414
METAR KPHG 212356Z AUTO 02005KT 10SM OVC020 07/07 A3021 A02 413
METAR KPHG 212256Z AUTO 02004KT 5SM BR SCT008 BKN014 OVC018 07/07 A3021 A02 412
METAR KPHG 212156Z AUTO 02007KT 10SM OVC015 08/05 A3020 A02 411
METAR KPHG 212056Z AUTO 01006KT 10SM OVC015 08/05 A3020 A02 410
METAR KPHG 211956Z AUTO 06009KT 10SM OVC017 08/06 A3020 A02 409
METAR KPHG 211856Z AUTO 07008KT 10SM SCT013 OVC021 08/06 A3021 A02 408
METAR KPHG 211756Z AUTO 06007KT 10SM BKN008 OVC015 07/07 A3022 A02 P0001 407
METAR KPHG 211656Z AUTO 07007KT 10SM -RA OVC010 07/07 A3023 A02 P0001 406
METAR KPHG 211556Z AUTO 06008KT 10SM -DZ OVC024 07/05 A3023 A02 405
METAR KPHG 211456Z AUTO 03006KT 10SM BKN026 OVC031 07/06 A3022 A02 P0001 404
METAR KPHG 211356Z AUTO 05003KT 10SM SCT029 SCT039 OVC070 06/06 A3022 A02 403
METAR KPHG 211256Z AUTO 04007KT 10SM -DZ OVC026 06/06 A3022 A02 P0001 402
METAR KPHG 211156Z AUTO 02005KT 10SM OVC032 06/06 A3020 A02 401
METAR KPHG 211056Z AUTO 03006KT 10SM -DZ OVC032 06/06 A3019 A02 400
METAR KPHG 210956Z AUTO 03005KT 10SM OVC065 06/06 A3020 A02 399
METAR KPHG 210856Z AUTO 06006KT 10SM SCT045 SCT049 OVC065 06/06 A3020 A02 398
METAR KPHG 210756Z AUTO 08009KT 10SM SCT035 SCT043 OVC050 06/06 A3024 A02 397
METAR KPHG 210656Z AUTO 10009KT 10SM -DZ SCT022 OVC028 07/07 A3025 A02 P0001 396
METAR KPHG 210556Z AUTO 09008KT 10SM -RA OVC030 07/07 A3026 A02 P0004 395
METAR KPHG 210456Z AUTO 09008KT 10SM SCT034 SCT060 OVC090 07/07 A3025 A02 P0001 394
METAR KPHG 210356Z AUTO 10016KT 10SM -RA SCT035 BKN041 OVC046 08/06 A3023 A02 P0010 393
METAR KPHG 210256Z AUTO 09008KT 7SM -RA SCT033 BKN040 OVC047 08/06 A3023 A02 P0020 392
METAR KPHG 210156Z AUTO 06008KT 10SM SCT044 SCT050 BKN060 11/02 A3018 A02 391
METAR KPHG 210056Z AUTO 04010KT 10SM SCT120 11/03 A3016 A02 390
METAR KPHG 202356Z AUTO 03007KT 10SM -RA SCT050 SCT055 SCT065 11/03 A3020 A02 389
METAR KPHG 202256Z AUTO 04006KT 10SM -RA SCT070 SCT080 SCT100 12/00 A3020 A02 388
METAR KPHG 202156Z AUTO 08004KT 10SM SCT090 SCT110 12/00 A3021 A02 387
METAR KPHG 202056Z AUTO 13005KT 10SM CLR 13/M01 A3022 A02 386
METAR KPHG 201956Z AUTO 12009G15KT 10SM CLR 14/M01 A3022 A02 385
METAR KPHG 201856Z AUTO 11015KT 10SM BKN110 13/M01 A3020 A02 384
METAR KPHG 201756Z AUTO 12012G17KT 10SM SCT120 11/M01 A3024 A02 383
METAR KPHG 201656Z AUTO 12013G19KT 10SM BKN110 11/M01 A3027 A02 382
METAR KPHG 201556Z AUTO 13013KT 10SM SCT110 10/M01 A3028 A02 381
METAR KPHG 201456Z AUTO 12012G16KT 10SM SCT110 09/M01 A3029 A02 380
METAR KPHG 201356Z AUTO 11012KT 10SM OVC110 08/M01 A3028 A02 379
METAR KPHG 201256Z AUTO 11007KT 10SM OVC110 06/M01 A3029 A02 378
METAR KPHG 201156Z AUTO 11008KT 10SM OVC110 06/M02 A3028 A02 377
METAR KPHG 201056Z AUTO 12006KT 10SM CLR 05/M02 A3029 A02 376
METAR KPHG 200956Z AUTO 12007KT 10SM CLR 05/M02 A3031 A02 375
METAR KPHG 200856Z AUTO 10004KT 10SM CLR 04/M02 A3031 A02 374
METAR KPHG 200756Z AUTO 09007KT 10SM SCT110 04/M03 A3031 A02 373
METAR KPHG 200656Z AUTO 08008KT 10SM CLR 03/M03 A3031 A02 372
METAR KPHG 200556Z AUTO 07007KT 10SM CLR 02/M03 A3032 A02 371
METAR KPHG 200456Z AUTO 09005KT 10SM CLR 04/M03 A3032 A02 370
METAR KPHG 200356Z AUTO 09004KT 10SM CLR 05/M03 A3033 A02 369
METAR KPHG 200256Z AUTO 09007KT 10SM CLR 07/M02 A3031 A02 368
METAR KPHG 200156Z AUTO 10008KT 10SM CLR 10/M03 A3030 A02 367
METAR KPHG 200056Z AUTO 10008KT 10SM CLR 12/M03 A3031 A02 366
METAR KPHG 192356Z AUTO 10014KT 10SM CLR 15/M04 A3031 A02 365
METAR KPHG 192256Z AUTO 11010KT 10SM CLR 16/M04 A3032 A02 364
METAR KPHG 192156Z AUTO 12008KT 10SM CLR 16/M05 A3033 A02 363
METAR KPHG 192056Z AUTO 11008G14KT 10SM CLR 16/M04 A3034 A02 362
METAR KPHG 191956Z AUTO 11007KT 060V140 10SM CLR 15/M04 A3038 A02 361
METAR KPHG 191856Z AUTO 05006G14KT 10SM CLR 14/M04 A3042 A02 360
METAR KPHG 191756Z AUTO 03007KT 10SM CLR 12/M03 A3045 A02 359
METAR KPHG 191656Z AUTO 11006KT 10SM CLR 09/M03 A3048 A02 358
METAR KPHG 191556Z AUTO 07004KT 10SM CLR 08/M02 A3047 A02 357
METAR KPHG 191456Z AUTO 03004KT 10SM CLR 06/00 A3047 A02 356
METAR KPHG 191356Z AUTO 01005KT 10SM CLR 04/00 A3047 A02 355
METAR KPHG 191256Z AUTO 31005KT 10SM CLR M01/M02 A3045 A02 354
METAR KPHG 191156Z AUTO 32005KT 10SM CLR M03/M03 A3043 A02 353
METAR KPHG 191056Z AUTO 30006KT 10SM CLR M03/M03 A3042 A02 352
METAR KPHG 190956Z AUTO 28007KT 10SM CLR M03/M03 A3039 A02 351
METAR KPHG 190856Z AUTO 30006KT 10SM CLR M02/M03 A3036 A02 350
METAR KPHG 190756Z AUTO 29006KT 10SM CLR M03/M04 A3034 A02 349
METAR KPHG 190656Z AUTO 29005KT 10SM CLR M02/M04 A3033 A02 348
METAR KPHG 190556Z AUTO 29005KT 10SM CLR M01/M03 A3033 A02 347
METAR KPHG 190456Z AUTO 29003KT 10SM CLR 01/M02 A3031 A02 346
METAR KPHG 190356Z AUTO 00000KT 10SM CLR 06/M01 A3029 A02 345
METAR KPHG 190256Z AUTO 01004KT 10SM CLR 05/M01 A3027 A02 344
METAR KPHG 190156Z AUTO 36007KT 10SM CLR 07/M01 A3024 A02 343
METAR KPHG 190056Z AUTO 36011G15KT 10SM CLR 11/M01 A3022 A02 342
METAR KPHG 182356Z AUTO 35014G21KT 10SM CLR 13/M02 A3020 A02 341
METAR KPHG 182256Z AUTO 33021G29KT 10SM CLR 14/M02 A3018 A02 340
METAR KPHG 182156Z AUTO 31018G33KT 10SM SCT065 15/M03 A3017 A02 339
METAR KPHG 182056Z AUTO 33022G29KT 10SM SCT055 15/M02 A3016 A02 338
METAR KPHG 181956Z AUTO 31020G28KT 10SM BKN065 14/M02 A3015 A02 337
METAR KPHG 181856Z AUTO 32022G31KT 10SM SCT055 12/M03 A3015 A02 336
METAR KPHG 181756Z AUTO 34021G30KT 10SM SCT044 SCT050 11/M03 A3015 A02 335
METAR KPHG 181656Z AUTO 31028G35KT 10SM SCT040 10/M02 A3011 A02 334
METAR KPHG 181556Z AUTO 31025G37KT 10SM OVC038 09/M02 A3008 A02 333
METAR KPHG 181456Z AUTO 30027G44KT 10SM BKN042 09/M02 A3005 A02 332
METAR KPHG 181356Z AUTO 30025G37KT 10SM SCT034 SCT043 08/M01 A3001 A02 331
METAR KPHG 181256Z AUTO 29019G27KT 10SM SCT039 07/00 A2999 A02 330
METAR KPHG 181156Z AUTO 29017G23KT 10SM SCT041 06/01 A2996 A02 329
METAR KPHG 181056Z AUTO 29013G22KT 10SM BKN030 06/01 A2994 A02 328
METAR KPHG 180956Z AUTO 28016G21KT 10SM OVC023 06/02 A2992 A02 327
METAR KPHG 180856Z AUTO 31013G19KT 10SM SCT017 SCT023 BKN075 07/02 A2987 A02 326
METAR KPHG 180756Z AUTO 30012G19KT 10SM SCT017 BKN024 OVC037 09/06 A2982 A02 325
METAR KPHG 180656Z AUTO 31010KT 10SM BKN036 BKN042 OVC050 09/05 A2979 A02 324
METAR KPHG 180556Z AUTO 34015KT 10SM CLR 09/04 A2974 A02 323
METAR KPHG 180456Z AUTO 31022G36KT 7SM RA SCT024 SCT033 BKN065 11/07 A2974 A02 322
METAR KPHG 180356Z AUTO 34015G27KT 10SM OVC075 13/01 A2969 A02 321
METAR KPHG 180256Z AUTO 34025G36KT 10SM CLR 13/01 A2960 A02 320